KDTL/DTL METAR and TAF weather

Enter ICAO airport designator
Station Type Date Time Source
KDTL METAR 2022/01/26 13:35 UTC NOAA

KDTL 261335Z AUTO 17011KT 10SM CLR M18/M22 A2990 RMK AO2


Station Type Date Time Source
KDTL Decoded METAR 2022/01/26 13:35 UTC NOAA

Detroit Lakes, Detroit Lakes Airport-Wething Field, MN, United States (KDTL) 46-50N 095-53W
Jan 26, 2022 - 08:35 AM EST / 2022.01.26 1335 UTC
Wind: from the S (170 degrees) at 13 MPH (11 KT):0
Visibility: 10 mile(s):0
Sky conditions: clear
Temperature: 0 F (-18 C)
Windchill: -18 F (-28 C):2
Dew Point: -7 F (-22 C)
Relative Humidity: 70%
Pressure (altimeter): 29.9 in. Hg (1012 hPa)
ob: KDTL 261335Z AUTO 17011KT 10SM CLR M18/M22 A2990 RMK AO2
cycle: 13

Station Type Date Time Source
KDTL TAF UTC NOAA

Error!

Example: see airport list